Time;durP1;ratioP1;P1;durP2;ratioP2;P2;SDS_P1;SDS_P2;PMS_P1;PMS_P2;Temp;Humidity;BMP_temperature;BMP_pressure;BME280_temperature;BME280_humidity;BME280_pressure;Samples;Min_cycle;Max_cycle;Signal;HPM_P1;HPM_P2
2023/07/25 00:01:34;;;;;;;3.78;2.10;;;12.30;99.90;;;;;;5050283;28;20383;-74
2023/07/25 00:04:00;;;;;;;6.93;2.13;;;12.30;99.90;;;;;;5051485;28;20087;-74
2023/07/25 00:06:26;;;;;;;4.70;2.17;;;12.20;99.90;;;;;;5051574;28;20027;-74
2023/07/25 00:08:51;;;;;;;6.82;2.33;;;12.10;99.90;;;;;;5050751;28;20029;-74
2023/07/25 00:11:17;;;;;;;4.13;1.92;;;12.20;99.90;;;;;;5051822;28;20105;-74
2023/07/25 00:13:43;;;;;;;3.85;2.30;;;12.10;99.90;;;;;;5051208;28;20476;-76
2023/07/25 00:16:08;;;;;;;6.28;2.42;;;12.10;99.90;;;;;;5050653;28;20108;-74
2023/07/25 00:18:35;;;;;;;5.40;2.92;;;12.00;99.90;;;;;;5050919;28;20053;-74
2023/07/25 00:21:00;;;;;;;6.88;3.53;;;12.00;99.90;;;;;;5050627;28;20454;-74
2023/07/25 00:23:26;;;;;;;3.80;2.53;;;12.00;99.90;;;;;;5051322;28;20047;-74
2023/07/25 00:25:52;;;;;;;3.67;2.42;;;11.90;99.90;;;;;;5051191;28;20031;-74
2023/07/25 00:28:17;;;;;;;9.10;2.90;;;11.90;99.90;;;;;;5051795;28;20052;-74
2023/07/25 00:30:43;;;;;;;3.53;2.50;;;11.80;99.90;;;;;;5052151;28;20031;-75
2023/07/25 00:33:09;;;;;;;7.13;2.60;;;11.80;99.90;;;;;;5051201;28;20025;-74
2023/07/25 00:35:34;;;;;;;6.03;2.80;;;11.70;99.90;;;;;;5049684;28;20021;-73
2023/07/25 00:38:03;;;;;;;4.45;2.47;;;11.70;99.90;;;;;;5050209;28;20107;-73
2023/07/25 00:40:29;;;;;;;4.00;2.42;;;11.70;99.90;;;;;;5051244;28;20036;-74
2023/07/25 00:42:55;;;;;;;6.10;2.47;;;11.60;99.90;;;;;;5050410;28;20044;-74
2023/07/25 00:45:22;;;;;;;5.05;3.03;;;11.60;99.90;;;;;;5050628;28;20082;-74
2023/07/25 00:47:49;;;;;;;3.58;2.47;;;11.50;99.90;;;;;;5052013;28;20039;-74
2023/07/25 00:50:14;;;;;;;4.70;2.50;;;11.50;99.90;;;;;;5050682;28;20138;-74
2023/07/25 00:52:40;;;;;;;8.45;3.17;;;11.40;99.90;;;;;;5050774;28;20422;-73
2023/07/25 00:55:07;;;;;;;7.10;2.60;;;11.40;99.90;;;;;;5048189;28;20094;-74
2023/07/25 00:57:33;;;;;;;5.47;2.65;;;11.30;99.90;;;;;;5050964;28;20055;-73
2023/07/25 00:59:58;;;;;;;7.78;3.00;;;11.30;99.90;;;;;;5050025;28;20504;-74
2023/07/25 01:02:25;;;;;;;4.63;2.28;;;11.30;99.90;;;;;;5050977;28;20440;-73
2023/07/25 01:04:50;;;;;;;3.20;2.67;;;11.30;99.90;;;;;;5049855;28;20374;-74
2023/07/25 01:07:17;;;;;;;4.45;2.65;;;11.20;99.90;;;;;;5050699;28;20021;-73
2023/07/25 01:09:45;;;;;;;6.43;2.72;;;11.20;99.90;;;;;;5050764;28;20033;-73
2023/07/25 01:12:12;;;;;;;4.43;2.70;;;11.20;99.90;;;;;;5050181;28;20035;-73
2023/07/25 01:14:39;;;;;;;3.42;2.40;;;11.20;99.90;;;;;;5050425;28;20486;-73
2023/07/25 01:17:15;;;;;;;6.55;3.40;;;11.10;99.90;;;;;;5049921;28;20094;-73
2023/07/25 01:19:43;;;;;;;5.35;3.03;;;11.10;99.90;;;;;;5050635;28;20029;-73
2023/07/25 01:22:10;;;;;;;4.00;2.67;;;11.00;99.90;;;;;;5049744;28;20021;-73
2023/07/25 01:24:40;;;;;;;5.93;2.85;;;11.00;99.90;;;;;;5050377;28;20053;-73
2023/07/25 01:27:06;;;;;;;4.55;2.70;;;10.90;99.90;;;;;;5049062;28;20098;-73
2023/07/25 01:29:32;;;;;;;4.60;2.67;;;10.90;99.90;;;;;;5051136;28;20066;-73
2023/07/25 01:31:57;;;;;;;5.57;2.78;;;10.90;99.90;;;;;;5050496;28;20055;-73
2023/07/25 01:34:23;;;;;;;7.28;2.85;;;10.80;99.90;;;;;;5050324;28;20033;-73
2023/07/25 01:36:49;;;;;;;5.88;2.95;;;10.80;99.90;;;;;;5050029;28;20507;-75
2023/07/25 01:39:14;;;;;;;7.85;2.83;;;10.80;99.90;;;;;;5050345;28;20033;-73
2023/07/25 01:41:41;;;;;;;7.00;3.08;;;10.80;99.90;;;;;;5050592;28;20037;-73
2023/07/25 01:44:07;;;;;;;6.35;3.17;;;10.70;99.90;;;;;;5049690;28;20032;-73
2023/07/25 01:46:33;;;;;;;4.95;3.15;;;10.70;99.90;;;;;;5050479;28;20476;-73
2023/07/25 01:48:58;;;;;;;4.95;2.85;;;10.70;99.90;;;;;;5050155;28;20025;-73
2023/07/25 01:51:25;;;;;;;4.35;3.22;;;10.60;99.90;;;;;;5050394;28;20036;-73
2023/07/25 01:53:51;;;;;;;8.82;3.42;;;10.60;99.90;;;;;;5048390;28;20025;-74
2023/07/25 01:56:17;;;;;;;6.75;3.70;;;10.60;99.90;;;;;;5050265;28;20533;-73
2023/07/25 01:58:42;;;;;;;7.90;3.80;;;10.70;99.90;;;;;;5050038;28;20161;-73
2023/07/25 02:01:08;;;;;;;6.28;3.53;;;10.60;99.90;;;;;;5049761;28;20029;-73
2023/07/25 02:03:34;;;;;;;5.88;3.00;;;10.60;99.90;;;;;;5050204;28;20468;-73
2023/07/25 02:05:59;;;;;;;6.47;3.50;;;10.50;99.90;;;;;;5049470;28;20025;-73
2023/07/25 02:08:25;;;;;;;6.78;3.33;;;10.50;99.90;;;;;;5050509;28;20111;-73
2023/07/25 02:10:51;;;;;;;6.50;3.50;;;10.40;99.90;;;;;;5049844;28;20021;-75
2023/07/25 02:13:16;;;;;;;6.65;3.13;;;10.40;99.90;;;;;;5049499;28;20105;-73
2023/07/25 02:15:42;;;;;;;3.97;3.22;;;10.40;99.90;;;;;;5049959;28;20461;-73
2023/07/25 02:18:08;;;;;;;9.18;3.55;;;10.40;99.90;;;;;;5049498;28;20052;-73
2023/07/25 02:20:33;;;;;;;7.25;3.40;;;10.40;99.90;;;;;;5049925;28;20350;-73
2023/07/25 02:22:59;;;;;;;7.68;3.25;;;10.40;99.90;;;;;;5049363;28;20036;-73
2023/07/25 02:25:26;;;;;;;6.97;3.70;;;10.30;99.90;;;;;;5049715;28;20377;-73
2023/07/25 02:27:52;;;;;;;9.00;3.90;;;10.30;99.90;;;;;;5047964;28;20439;-75
2023/07/25 02:30:19;;;;;;;6.00;3.80;;;10.30;99.90;;;;;;5049535;28;20057;-73
2023/07/25 02:32:45;;;;;;;6.75;4.03;;;10.30;99.90;;;;;;5050087;28;20021;-73
2023/07/25 02:35:10;;;;;;;8.70;4.63;;;10.30;99.90;;;;;;5048846;28;20040;-73
2023/07/25 02:37:36;;;;;;;4.55;3.60;;;10.30;99.90;;;;;;5049777;28;20039;-73
2023/07/25 02:40:02;;;;;;;7.82;4.15;;;10.20;99.90;;;;;;5052494;28;20109;-73
2023/07/25 02:42:28;;;;;;;8.60;4.50;;;10.30;99.90;;;;;;5053311;28;20029;-73
2023/07/25 02:44:54;;;;;;;7.70;4.20;;;10.20;99.90;;;;;;5052879;28;20495;-75
2023/07/25 02:47:19;;;;;;;6.40;3.95;;;10.20;99.90;;;;;;5053252;28;20029;-73
2023/07/25 02:49:45;;;;;;;6.40;4.10;;;10.20;99.90;;;;;;5052953;28;20044;-73
2023/07/25 02:52:10;;;;;;;5.00;3.45;;;10.20;99.90;;;;;;5051118;28;20064;-73
2023/07/25 02:54:36;;;;;;;6.88;4.00;;;10.20;99.90;;;;;;5051783;28;20155;-73
2023/07/25 02:57:02;;;;;;;6.43;4.10;;;10.20;99.90;;;;;;5052771;28;20033;-73
2023/07/25 02:59:29;;;;;;;6.30;3.58;;;10.20;99.90;;;;;;5052603;28;20128;-73
2023/07/25 03:01:55;;;;;;;6.32;4.00;;;10.10;99.90;;;;;;5052326;28;20040;-74
2023/07/25 03:04:20;;;;;;;9.55;4.05;;;10.10;99.90;;;;;;5052861;28;20029;-73
2023/07/25 03:06:46;;;;;;;6.88;4.43;;;10.10;99.90;;;;;;5053142;28;20035;-73
2023/07/25 03:09:12;;;;;;;7.72;3.63;;;10.00;99.90;;;;;;5052186;28;20033;-73
2023/07/25 03:11:37;;;;;;;8.77;4.03;;;10.00;99.90;;;;;;5053119;28;20055;-73
2023/07/25 03:14:03;;;;;;;7.72;3.75;;;9.90;99.90;;;;;;5052354;28;20115;-73
2023/07/25 03:16:29;;;;;;;5.30;4.15;;;9.90;99.90;;;;;;5052568;28;20373;-73
2023/07/25 03:18:55;;;;;;;9.15;3.78;;;9.90;99.90;;;;;;5052576;28;20033;-74
2023/07/25 03:21:20;;;;;;;5.53;4.30;;;9.90;99.90;;;;;;5052192;28;20083;-73
2023/07/25 03:23:46;;;;;;;6.32;4.13;;;9.80;99.90;;;;;;5051223;28;20052;-73
2023/07/25 03:26:12;;;;;;;5.32;3.72;;;9.80;99.90;;;;;;5051996;28;20033;-73
2023/07/25 03:28:38;;;;;;;7.07;4.22;;;9.80;99.90;;;;;;5052014;28;20478;-73
2023/07/25 03:31:07;;;;;;;6.18;3.53;;;9.80;99.90;;;;;;5051747;28;20049;-73
2023/07/25 03:33:33;;;;;;;6.55;3.72;;;9.80;99.90;;;;;;5052602;28;20021;-73
2023/07/25 03:35:58;;;;;;;6.50;3.75;;;9.70;99.90;;;;;;5051705;28;20108;-74
2023/07/25 03:38:24;;;;;;;5.35;3.85;;;9.80;99.90;;;;;;5051977;28;20481;-73
2023/07/25 03:40:50;;;;;;;5.50;4.10;;;9.80;99.90;;;;;;5051950;28;20180;-73
2023/07/25 03:43:16;;;;;;;7.00;3.92;;;9.80;99.90;;;;;;5051388;28;20683;-73
2023/07/25 03:45:41;;;;;;;5.80;3.70;;;9.70;99.90;;;;;;5051829;28;20029;-73
2023/07/25 03:48:08;;;;;;;5.90;4.03;;;9.80;99.90;;;;;;5049732;28;20029;-73
2023/07/25 03:50:34;;;;;;;6.05;3.58;;;9.70;99.90;;;;;;5051650;28;20036;-73
2023/07/25 03:53:01;;;;;;;5.97;3.83;;;9.70;99.90;;;;;;5051188;28;20029;-74
2023/07/25 03:55:27;;;;;;;6.93;3.78;;;9.70;99.90;;;;;;5051613;28;20029;-73
2023/07/25 03:57:53;;;;;;;7.03;3.90;;;9.60;99.90;;;;;;5051772;28;20053;-73
2023/07/25 04:00:19;;;;;;;7.13;4.03;;;9.60;99.90;;;;;;5049750;28;20041;-73
2023/07/25 04:02:44;;;;;;;5.88;4.40;;;9.60;99.90;;;;;;5051640;28;20036;-73
2023/07/25 04:05:10;;;;;;;8.75;3.88;;;9.60;99.90;;;;;;5051730;28;20025;-73
2023/07/25 04:07:36;;;;;;;5.55;3.83;;;9.60;99.90;;;;;;5051649;28;20056;-73
2023/07/25 04:10:02;;;;;;;8.75;3.85;;;9.60;99.90;;;;;;5050730;28;20052;-73
2023/07/25 04:12:28;;;;;;;5.38;3.75;;;9.60;99.90;;;;;;5051639;28;20094;-73
2023/07/25 04:14:53;;;;;;;7.75;3.90;;;9.60;99.90;;;;;;5051167;28;20100;-73
2023/07/25 04:17:19;;;;;;;8.75;4.20;;;9.60;99.90;;;;;;5050757;28;20024;-73
2023/07/25 04:19:45;;;;;;;6.53;3.35;;;9.60;99.90;;;;;;5051481;28;20025;-73
2023/07/25 04:22:11;;;;;;;6.15;3.60;;;9.60;99.90;;;;;;5050720;28;20488;-73
2023/07/25 04:24:37;;;;;;;7.03;3.85;;;9.60;99.90;;;;;;5051205;28;20017;-73
2023/07/25 04:27:02;;;;;;;8.07;3.80;;;9.60;99.90;;;;;;5050665;28;20047;-73
2023/07/25 04:29:28;;;;;;;7.03;4.05;;;9.60;99.90;;;;;;5051065;28;20482;-73
2023/07/25 04:31:54;;;;;;;6.13;3.90;;;9.60;99.90;;;;;;5051146;28;20082;-73
2023/07/25 04:34:20;;;;;;;6.65;3.78;;;9.70;99.90;;;;;;5050630;28;20446;-73
2023/07/25 04:36:45;;;;;;;10.27;4.20;;;9.80;99.90;;;;;;5033108;28;20430;-74
2023/07/25 04:39:11;;;;;;;6.90;3.72;;;9.80;99.90;;;;;;5050461;28;20352;-73
2023/07/25 04:41:36;;;;;;;6.13;3.65;;;9.90;99.90;;;;;;5051400;28;20029;-73
2023/07/25 04:44:02;;;;;;;7.20;3.78;;;10.00;99.90;;;;;;5050100;28;20477;-73
2023/07/25 04:46:29;;;;;;;6.88;3.55;;;10.00;99.90;;;;;;5050651;28;20025;-73
2023/07/25 04:48:56;;;;;;;5.28;4.15;;;10.00;99.90;;;;;;5050302;28;20480;-73
2023/07/25 04:51:21;;;;;;;7.45;4.07;;;10.10;99.90;;;;;;5050592;28;20104;-73
2023/07/25 04:53:47;;;;;;;8.90;4.15;;;10.20;99.90;;;;;;5051081;28;20463;-73
2023/07/25 04:56:13;;;;;;;8.80;4.25;;;10.20;99.90;;;;;;5050674;28;20522;-74
2023/07/25 04:58:40;;;;;;;4.28;3.28;;;10.20;99.90;;;;;;5051256;28;20056;-73
2023/07/25 05:01:07;;;;;;;9.02;4.07;;;10.30;99.90;;;;;;5049757;28;20031;-74
2023/07/25 05:03:33;;;;;;;6.50;4.13;;;10.30;99.90;;;;;;5050371;28;20505;-74
2023/07/25 05:05:59;;;;;;;6.65;3.67;;;10.30;99.90;;;;;;5050440;28;20021;-73
2023/07/25 05:08:25;;;;;;;6.03;3.10;;;10.30;99.90;;;;;;5049574;28;20108;-73
2023/07/25 05:10:52;;;;;;;5.68;3.60;;;10.30;99.90;;;;;;5050386;28;20505;-73
2023/07/25 05:13:18;;;;;;;8.00;4.55;;;10.40;99.90;;;;;;5049533;28;20411;-73
2023/07/25 05:15:44;;;;;;;5.70;3.33;;;10.60;99.90;;;;;;5050407;28;20342;-73
2023/07/25 05:18:10;;;;;;;6.93;4.25;;;10.70;99.90;;;;;;5049688;28;20100;-74
2023/07/25 05:20:36;;;;;;;6.55;3.60;;;10.90;99.90;;;;;;5050118;28;20029;-73
2023/07/25 05:23:02;;;;;;;6.22;3.50;;;11.00;99.90;;;;;;5050156;28;20057;-75
2023/07/25 05:25:27;;;;;;;10.02;4.57;;;11.20;99.90;;;;;;5049624;28;20119;-73
2023/07/25 05:27:53;;;;;;;5.25;3.53;;;11.40;99.90;;;;;;5049639;28;20041;-73
2023/07/25 05:30:19;;;;;;;6.05;3.90;;;11.50;99.90;;;;;;5049481;28;20128;-73
2023/07/25 05:32:45;;;;;;;7.97;3.88;;;11.60;99.90;;;;;;5049696;28;20029;-73
2023/07/25 05:35:11;;;;;;;6.75;3.70;;;11.80;99.90;;;;;;5049500;28;20118;-73
2023/07/25 05:37:38;;;;;;;7.18;3.53;;;11.90;99.90;;;;;;5050111;28;20080;-73
2023/07/25 05:40:04;;;;;;;7.65;3.33;;;12.00;99.90;;;;;;5049684;28;20029;-75
2023/07/25 05:42:31;;;;;;;7.05;3.53;;;12.10;99.90;;;;;;5050506;28;20439;-73
2023/07/25 05:44:58;;;;;;;5.35;3.45;;;12.10;99.90;;;;;;5049901;28;20100;-73
2023/07/25 05:47:24;;;;;;;6.60;3.38;;;12.20;99.90;;;;;;5047967;28;20091;-73
2023/07/25 05:49:50;;;;;;;5.90;3.40;;;12.40;99.90;;;;;;5049972;28;20119;-73
2023/07/25 05:52:16;;;;;;;6.22;3.88;;;12.50;99.90;;;;;;5049334;28;20328;-73
2023/07/25 05:54:43;;;;;;;7.32;3.65;;;12.60;99.90;;;;;;5050037;28;20060;-73
2023/07/25 05:57:09;;;;;;;9.05;3.50;;;12.70;99.90;;;;;;5049579;28;20128;-74
2023/07/25 05:59:35;;;;;;;5.22;3.25;;;12.80;99.90;;;;;;5048445;28;20119;-73
2023/07/25 06:02:02;;;;;;;4.97;2.97;;;12.90;99.90;;;;;;5049394;28;20079;-73
2023/07/25 06:04:27;;;;;;;4.40;3.10;;;13.00;99.90;;;;;;5049102;28;20437;-73
2023/07/25 06:06:53;;;;;;;4.10;3.15;;;13.20;99.90;;;;;;5049526;28;20056;-73
2023/07/25 06:09:19;;;;;;;5.60;3.35;;;13.20;99.90;;;;;;5049113;28;20171;-74
2023/07/25 06:11:44;;;;;;;3.97;3.10;;;13.30;99.90;;;;;;5048493;28;20435;-74
2023/07/25 06:14:10;;;;;;;7.10;3.20;;;13.40;99.90;;;;;;5050769;28;20079;-74
2023/07/25 06:16:36;;;;;;;3.70;2.78;;;13.50;99.90;;;;;;5053150;28;20025;-74
2023/07/25 06:19:02;;;;;;;7.78;3.45;;;13.60;99.90;;;;;;5053328;28;20036;-74
2023/07/25 06:21:27;;;;;;;5.35;2.95;;;13.70;99.90;;;;;;5052500;28;20494;-74
2023/07/25 06:23:53;;;;;;;5.45;3.10;;;13.80;99.90;;;;;;5053283;28;20132;-74
2023/07/25 06:26:19;;;;;;;3.65;2.58;;;13.90;99.90;;;;;;5052567;28;20415;-74
2023/07/25 06:28:45;;;;;;;4.93;2.72;;;14.00;99.90;;;;;;5053137;28;20076;-74
2023/07/25 06:31:10;;;;;;;5.90;2.88;;;14.00;99.90;;;;;;5052608;28;20363;-75
2023/07/25 06:33:36;;;;;;;5.15;3.33;;;14.10;99.90;;;;;;5053140;28;20044;-74
2023/07/25 06:36:02;;;;;;;5.15;2.83;;;14.10;99.90;;;;;;5052939;28;20029;-74
2023/07/25 06:38:27;;;;;;;5.22;3.00;;;14.20;99.90;;;;;;5052154;28;20706;-74
2023/07/25 06:40:53;;;;;;;3.97;2.75;;;14.30;99.90;;;;;;5052813;28;20143;-74
2023/07/25 06:43:19;;;;;;;5.80;2.75;;;14.40;99.90;;;;;;5052227;28;20043;-74
2023/07/25 06:45:44;;;;;;;5.95;3.08;;;14.40;99.90;;;;;;5052497;28;20382;-74
2023/07/25 06:48:10;;;;;;;5.82;2.88;;;14.50;99.90;;;;;;5052262;28;20024;-75
2023/07/25 06:50:36;;;;;;;6.95;3.05;;;14.60;99.90;;;;;;5052633;28;20093;-74
2023/07/25 06:53:02;;;;;;;6.60;3.20;;;14.60;99.90;;;;;;5052922;28;20071;-74
2023/07/25 06:55:27;;;;;;;6.18;3.00;;;14.70;99.90;;;;;;5051932;28;20099;-73
2023/07/25 06:57:53;;;;;;;4.30;2.67;;;14.80;99.90;;;;;;5052941;28;20083;-74
2023/07/25 07:00:19;;;;;;;4.10;2.85;;;14.90;99.90;;;;;;5052191;28;20501;-74
2023/07/25 07:02:44;;;;;;;6.53;2.85;;;15.00;99.90;;;;;;5053189;28;20029;-74
2023/07/25 07:05:10;;;;;;;6.82;2.80;;;15.10;99.90;;;;;;5052265;28;20104;-76
2023/07/25 07:07:40;;;;;;;6.63;2.63;;;15.20;99.90;;;;;;5052786;28;20028;-74
2023/07/25 07:10:06;;;;;;;3.13;2.35;;;15.30;99.90;;;;;;5052590;28;20029;-74
2023/07/25 07:12:32;;;;;;;4.15;2.45;;;15.30;99.90;;;;;;5052238;28;20033;-74
2023/07/25 07:14:57;;;;;;;4.32;2.90;;;15.30;99.90;;;;;;5052411;28;20036;-74
2023/07/25 07:17:23;;;;;;;4.45;2.70;;;15.50;99.90;;;;;;5051666;28;20032;-75
2023/07/25 07:19:49;;;;;;;6.10;2.85;;;15.50;99.90;;;;;;5052437;28;20113;-74
2023/07/25 07:22:14;;;;;;;8.23;3.00;;;15.50;99.90;;;;;;5050576;28;20032;-75
2023/07/25 07:24:41;;;;;;;3.60;2.58;;;15.50;99.90;;;;;;5051804;28;20050;-75
2023/07/25 07:27:06;;;;;;;4.78;2.97;;;15.40;99.90;;;;;;5052042;28;20061;-75
2023/07/25 07:29:32;;;;;;;6.10;2.80;;;15.50;99.90;;;;;;5051580;28;20119;-75
2023/07/25 07:31:59;;;;;;;4.97;2.80;;;15.50;99.90;;;;;;5052011;28;20174;-75
2023/07/25 07:34:25;;;;;;;7.88;3.03;;;15.60;99.90;;;;;;5049944;28;20040;-74
2023/07/25 07:36:51;;;;;;;5.80;2.63;;;15.70;99.90;;;;;;5052022;28;20073;-74
2023/07/25 07:39:17;;;;;;;4.57;2.40;;;15.80;99.90;;;;;;5051615;28;20033;-75
2023/07/25 07:41:42;;;;;;;6.43;3.05;;;15.90;99.90;;;;;;5051976;28;20041;-75
2023/07/25 07:44:08;;;;;;;5.30;2.60;;;15.90;99.90;;;;;;5052355;28;20025;-74
2023/07/25 07:46:35;;;;;;;3.97;2.28;;;15.90;99.90;;;;;;5051379;28;20024;-74
2023/07/25 07:49:01;;;;;;;3.67;2.65;;;15.90;99.90;;;;;;5052266;28;20135;-74
2023/07/25 07:51:27;;;;;;;5.25;2.67;;;16.00;99.90;;;;;;5051542;28;20108;-75
2023/07/25 07:53:53;;;;;;;5.40;2.53;;;15.90;99.90;;;;;;5051990;28;20112;-74
2023/07/25 07:56:19;;;;;;;5.43;2.65;;;16.00;99.90;;;;;;5051562;28;20100;-75
2023/07/25 07:58:45;;;;;;;4.60;2.60;;;16.10;99.90;;;;;;5051127;28;20032;-75
2023/07/25 08:01:19;;;;;;;4.38;2.47;;;16.10;99.90;;;;;;5051070;28;20055;-74
2023/07/25 08:03:46;;;;;;;6.88;2.47;;;16.10;99.90;;;;;;5051133;28;20029;-74
2023/07/25 08:06:12;;;;;;;4.53;2.53;;;16.10;99.90;;;;;;5051184;28;20100;-76
2023/07/25 08:08:38;;;;;;;4.65;2.78;;;16.20;99.90;;;;;;5050224;28;20025;-76
2023/07/25 08:11:03;;;;;;;7.07;2.33;;;16.30;99.90;;;;;;5051313;28;20074;-75
2023/07/25 08:13:29;;;;;;;5.53;2.58;;;16.40;99.90;;;;;;5049933;28;20393;-77
2023/07/25 08:15:55;;;;;;;5.47;2.83;;;16.50;99.90;;;;;;5050928;28;20036;-75
2023/07/25 08:18:20;;;;;;;5.25;2.22;;;16.70;99.90;;;;;;5048709;28;20032;-75
2023/07/25 08:20:46;;;;;;;2.63;2.40;;;16.80;99.90;;;;;;5050765;28;20021;-74
2023/07/25 08:23:13;;;;;;;3.90;2.53;;;16.80;99.90;;;;;;5050620;28;20036;-77
2023/07/25 08:25:39;;;;;;;4.75;2.40;;;16.90;99.90;;;;;;5051293;28;20084;-75
2023/07/25 08:28:05;;;;;;;4.97;2.53;;;16.90;99.90;;;;;;5049506;28;20049;-73
2023/07/25 08:30:31;;;;;;;5.65;2.53;;;17.00;99.90;;;;;;5049394;28;20021;-75
2023/07/25 08:32:57;;;;;;;8.55;2.45;;;17.20;99.90;;;;;;5050848;28;20135;-75
2023/07/25 08:35:23;;;;;;;4.43;2.70;;;17.20;99.90;;;;;;5048574;28;20032;-75
2023/07/25 08:37:49;;;;;;;2.90;2.10;;;17.30;99.90;;;;;;5050761;28;20436;-75
2023/07/25 08:40:16;;;;;;;3.42;2.35;;;17.30;99.90;;;;;;5050689;28;20032;-77
2023/07/25 08:42:45;;;;;;;5.55;2.90;;;17.10;99.90;;;;;;5051192;28;20486;-74
2023/07/25 08:45:11;;;;;;;5.65;2.53;;;17.10;99.90;;;;;;5051016;28;20021;-75
2023/07/25 08:47:41;;;;;;;3.97;2.30;;;17.20;99.90;;;;;;5050990;28;20029;-75
2023/07/25 08:50:15;;;;;;;5.75;2.30;;;17.20;99.90;;;;;;5050714;28;20376;-77
2023/07/25 08:52:48;;;;;;;3.00;2.35;;;17.30;99.90;;;;;;5050505;28;20431;-76
2023/07/25 08:55:14;;;;;;;3.28;2.30;;;17.20;99.90;;;;;;5050850;28;20025;-75
2023/07/25 08:57:42;;;;;;;3.67;2.13;;;17.20;99.90;;;;;;5049981;28;20175;-75
2023/07/25 09:00:08;;;;;;;3.90;2.40;;;17.30;99.90;;;;;;5049797;28;20040;-77
2023/07/25 09:02:34;;;;;;;4.65;2.45;;;17.30;99.90;;;;;;5048336;28;20033;-76
2023/07/25 09:05:01;;;;;;;3.22;2.22;;;17.40;99.90;;;;;;5049920;28;20025;-76
2023/07/25 09:07:27;;;;;;;3.22;2.10;;;17.40;99.90;;;;;;5047967;28;20025;-79
2023/07/25 09:09:53;;;;;;;3.55;2.20;;;17.60;99.90;;;;;;5050010;28;20411;-77
2023/07/25 09:12:19;;;;;;;6.15;2.25;;;17.60;99.90;;;;;;5049251;28;20021;-77
2023/07/25 09:14:44;;;;;;;4.75;2.38;;;17.60;99.90;;;;;;5050007;28;20347;-76
2023/07/25 09:17:10;;;;;;;3.92;2.00;;;17.70;99.90;;;;;;5049738;28;20375;-76
2023/07/25 09:19:36;;;;;;;3.20;1.90;;;17.80;99.90;;;;;;5050128;28;20420;-77
2023/07/25 09:22:02;;;;;;;4.50;1.90;;;17.80;99.90;;;;;;5050044;28;20040;-77
2023/07/25 09:24:38;;;;;;;3.20;2.00;;;17.80;99.90;;;;;;5050218;28;20451;-77
2023/07/25 09:27:16;;;;;;;3.58;2.33;;;17.80;99.90;;;;;;5049162;28;20028;-78
2023/07/25 09:29:42;;;;;;;3.22;2.30;;;18.00;99.90;;;;;;5049973;28;20095;-77
2023/07/25 09:32:25;;;;;;;4.40;2.40;;;18.00;99.90;;;;;;5049645;28;20033;-78
2023/07/25 09:34:59;;;;;;;3.58;1.90;;;18.00;99.90;;;;;;5049692;28;20343;-78
2023/07/25 09:37:25;;;;;;;3.85;2.13;;;18.10;99.90;;;;;;5049213;28;20331;-77
2023/07/25 09:39:51;;;;;;;2.38;1.90;;;18.10;99.90;;;;;;5049636;28;20021;-77
2023/07/25 09:42:21;;;;;;;4.18;1.95;;;18.10;99.90;;;;;;5048846;28;20494;-79
2023/07/25 09:44:51;;;;;;;3.03;1.85;;;18.20;99.90;;;;;;5048069;28;20021;-78
2023/07/25 09:47:26;;;;;;;4.63;2.08;;;18.10;99.90;;;;;;5050217;28;20405;-79
2023/07/25 09:49:53;;;;;;;5.18;2.53;;;18.20;99.90;;;;;;5053571;28;20106;-77
2023/07/25 09:52:19;;;;;;;2.45;2.20;;;18.20;99.90;;;;;;5052768;28;20021;-78
2023/07/25 09:54:45;;;;;;;5.50;2.72;;;18.10;99.90;;;;;;5053511;28;20090;-76
2023/07/25 09:57:11;;;;;;;3.75;2.58;;;18.10;99.90;;;;;;5053758;28;20328;-77
2023/07/25 09:59:37;;;;;;;3.78;2.20;;;18.10;99.90;;;;;;5053875;28;20466;-77
2023/07/25 10:02:06;;;;;;;3.10;2.58;;;18.20;99.90;;;;;;5053857;28;20376;-77
2023/07/25 10:04:36;;;;;;;3.38;2.45;;;18.30;99.90;;;;;;5053265;28;20033;-77
2023/07/25 10:07:02;;;;;;;4.78;2.63;;;18.20;99.90;;;;;;5053401;28;20032;-77
2023/07/25 10:09:30;;;;;;;2.80;2.33;;;18.30;99.90;;;;;;5052840;28;20217;-78
2023/07/25 10:11:56;;;;;;;3.10;2.72;;;18.40;99.90;;;;;;5053499;28;20032;-78
2023/07/25 10:14:22;;;;;;;6.70;2.92;;;18.60;99.90;;;;;;5053223;28;20025;-78
2023/07/25 10:16:49;;;;;;;7.80;3.63;;;18.80;99.90;;;;;;5053527;28;20050;-77
2023/07/25 10:19:15;;;;;;;3.92;2.90;;;19.00;99.90;;;;;;5053358;28;20024;-77
2023/07/25 10:21:52;;;;;;;4.25;2.90;;;19.00;99.90;;;;;;5052937;28;20030;-77
2023/07/25 10:24:20;;;;;;;7.25;2.40;;;18.90;99.90;;;;;;5053859;28;20025;-80
2023/07/25 10:26:57;;;;;;;5.78;2.80;;;18.60;99.90;;;;;;5053527;28;20485;-77
2023/07/25 10:29:48;;;;;;;4.43;2.88;;;18.40;99.90;;;;;;5051441;28;20079;-76
2023/07/25 10:32:15;;;;;;;6.25;3.40;;;18.50;99.90;;;;;;5053573;28;20025;-75
2023/07/25 10:34:46;;;;;;;5.15;3.35;;;18.60;99.90;;;;;;5052971;28;20052;-79
2023/07/25 10:37:22;;;;;;;4.32;3.50;;;18.70;99.90;;;;;;5051535;28;20474;-74
2023/07/25 10:40:02;;;;;;;5.22;3.70;;;18.50;99.90;;;;;;5053347;28;20033;-76
2023/07/25 10:42:51;;;;;;;4.93;3.45;;;18.40;99.90;;;;;;5052355;28;20378;-75
2023/07/25 10:45:21;;;;;;;6.20;3.90;;;18.40;99.90;;;;;;5052115;28;20041;-76
2023/07/25 10:47:49;;;;;;;5.45;3.47;;;18.30;99.90;;;;;;5053180;28;20021;-74
2023/07/25 10:50:44;;;;;;;6.50;3.70;;;18.20;99.90;;;;;;5051342;28;20355;-76
2023/07/25 10:53:21;;;;;;;8.27;4.30;;;18.40;99.90;;;;;;5052259;28;20091;-77
2023/07/25 10:56:10;;;;;;;5.90;3.80;;;18.70;99.90;;;;;;5053158;28;20131;-76
2023/07/25 10:59:05;;;;;;;6.22;4.05;;;18.80;99.90;;;;;;5051354;28;20044;-76
2023/07/25 11:01:40;;;;;;;6.35;4.63;;;18.80;99.90;;;;;;5052741;28;20111;-76
2023/07/25 11:04:24;;;;;;;5.72;4.32;;;19.00;99.90;;;;;;5053210;28;20067;-76
2023/07/25 11:06:52;;;;;;;8.13;4.70;;;19.00;99.90;;;;;;5053255;28;20021;-76
2023/07/25 11:09:18;;;;;;;5.97;4.60;;;19.00;99.90;;;;;;5053159;28;20060;-76
2023/07/25 11:11:46;;;;;;;7.03;4.38;;;19.20;99.90;;;;;;5052240;28;20352;-76
2023/07/25 11:14:15;;;;;;;6.35;4.30;;;19.30;99.90;;;;;;5052804;28;20044;-76
2023/07/25 11:16:42;;;;;;;7.13;4.82;;;19.40;99.90;;;;;;5052504;28;20107;-76
2023/07/25 11:19:11;;;;;;;8.38;5.00;;;19.30;99.90;;;;;;5052585;28;20029;-77
2023/07/25 11:21:39;;;;;;;7.00;4.18;;;19.30;99.90;;;;;;5052272;28;20040;-77
2023/07/25 11:24:07;;;;;;;9.55;5.53;;;19.30;99.90;;;;;;5052825;28;20025;-76
2023/07/25 11:26:33;;;;;;;7.40;4.82;;;19.50;99.90;;;;;;5052280;28;20029;-77
2023/07/25 11:29:07;;;;;;;7.45;4.57;;;19.60;99.90;;;;;;5050716;28;20048;-76
2023/07/25 11:31:35;;;;;;;8.07;5.10;;;19.40;99.90;;;;;;5052248;28;20323;-76
2023/07/25 11:34:16;;;;;;;8.63;4.80;;;19.40;99.90;;;;;;5052624;28;20031;-76
2023/07/25 11:36:43;;;;;;;6.28;4.43;;;19.30;99.90;;;;;;5052101;28;20029;-76
2023/07/25 11:39:10;;;;;;;6.25;4.70;;;19.20;99.90;;;;;;5052346;28;20032;-77
2023/07/25 11:41:37;;;;;;;7.88;5.13;;;19.20;99.90;;;;;;5050213;28;20029;-77
2023/07/25 11:44:11;;;;;;;6.28;4.72;;;19.20;99.90;;;;;;5052026;28;20030;-77
2023/07/25 11:46:40;;;;;;;8.68;5.45;;;19.30;99.90;;;;;;5051539;28;20386;-76
2023/07/25 11:49:07;;;;;;;8.38;5.13;;;19.30;99.90;;;;;;5051940;28;20029;-77
2023/07/25 11:51:33;;;;;;;6.95;4.82;;;19.20;99.90;;;;;;5051641;28;20025;-77
2023/07/25 11:54:00;;;;;;;6.85;4.70;;;19.20;99.90;;;;;;5052353;28;20024;-77
2023/07/25 11:56:26;;;;;;;9.13;5.25;;;19.30;99.90;;;;;;5050562;28;20028;-78
2023/07/25 11:58:52;;;;;;;8.55;5.20;;;19.40;99.90;;;;;;5052435;28;20450;-76
2023/07/25 12:01:18;;;;;;;6.28;4.88;;;19.50;99.90;;;;;;5051963;28;20037;-76
2023/07/25 12:03:48;;;;;;;8.70;5.40;;;19.60;99.90;;;;;;5051228;28;20277;-77
2023/07/25 12:06:15;;;;;;;7.25;5.60;;;19.70;99.90;;;;;;5051811;28;20110;-77
2023/07/25 12:08:45;;;;;;;10.60;5.63;;;19.70;99.90;;;;;;5051111;28;20040;-77
2023/07/25 12:11:12;;;;;;;8.18;5.47;;;19.60;99.90;;;;;;5050996;28;20029;-77
2023/07/25 12:13:50;;;;;;;5.68;4.47;;;19.70;99.90;;;;;;5050845;28;20025;-76
2023/07/25 12:16:28;;;;;;;8.60;5.43;;;19.90;99.90;;;;;;5051558;28;20025;-76
2023/07/25 12:18:59;;;;;;;7.22;5.40;;;20.00;99.90;;;;;;5050575;28;20489;-77
2023/07/25 12:21:30;;;;;;;7.95;5.32;;;20.00;99.90;;;;;;5051306;28;20032;-78
2023/07/25 12:24:00;;;;;;;9.45;5.13;;;20.00;99.90;;;;;;5050469;28;20070;-77
2023/07/25 12:26:27;;;;;;;5.75;4.43;;;19.90;99.90;;;;;;5050933;28;20035;-78
2023/07/25 12:28:54;;;;;;;8.13;5.53;;;19.90;99.90;;;;;;5050811;28;20053;-76
2023/07/25 12:31:21;;;;;;;7.07;5.22;;;20.00;99.90;;;;;;5051341;28;20033;-77
2023/07/25 12:33:49;;;;;;;6.03;4.78;;;20.00;99.90;;;;;;5050715;28;20025;-76
2023/07/25 12:36:16;;;;;;;6.40;4.50;;;20.00;99.90;;;;;;5051123;28;20110;-76
2023/07/25 12:38:42;;;;;;;9.50;4.50;;;20.10;99.90;;;;;;5050172;28;20036;-77
2023/07/25 12:41:08;;;;;;;6.63;4.80;;;20.20;99.90;;;;;;5051088;28;20029;-76
2023/07/25 12:43:34;;;;;;;7.28;4.72;;;20.10;99.90;;;;;;5050334;28;20032;-76
2023/07/25 12:46:01;;;;;;;7.30;5.43;;;20.10;99.90;;;;;;5051068;28;20121;-76
2023/07/25 12:48:27;;;;;;;7.20;5.32;;;20.00;99.90;;;;;;5050702;28;20021;-78